sensor_id;sensor_type;location;lat;lon;timestamp;P1;durP1;ratioP1;P2;durP2;ratioP2
43813;SDS011;29669;55.706;37.656;2024-02-28T00:01:11;7.03;;;3.88;;
43813;SDS011;29669;55.706;37.656;2024-02-28T00:03:38;6.50;;;3.42;;
43813;SDS011;29669;55.706;37.656;2024-02-28T00:06:06;5.57;;;3.38;;
43813;SDS011;29669;55.706;37.656;2024-02-28T00:08:34;9.60;;;4.10;;
43813;SDS011;29669;55.706;37.656;2024-02-28T00:11:02;10.07;;;3.65;;
43813;SDS011;29669;55.706;37.656;2024-02-28T00:13:30;10.05;;;4.07;;
43813;SDS011;29669;55.706;37.656;2024-02-28T00:15:58;10.95;;;4.45;;
43813;SDS011;29669;55.706;37.656;2024-02-28T00:18:25;10.65;;;3.47;;
43813;SDS011;29669;55.706;37.656;2024-02-28T00:20:53;9.30;;;3.60;;
43813;SDS011;29669;55.706;37.656;2024-02-28T00:23:21;11.88;;;3.92;;
43813;SDS011;29669;55.706;37.656;2024-02-28T00:25:49;5.88;;;3.60;;
43813;SDS011;29669;55.706;37.656;2024-02-28T00:28:17;9.82;;;3.47;;
43813;SDS011;29669;55.706;37.656;2024-02-28T00:30:44;9.40;;;4.35;;
43813;SDS011;29669;55.706;37.656;2024-02-28T00:33:12;8.70;;;4.03;;
43813;SDS011;29669;55.706;37.656;2024-02-28T00:35:40;8.82;;;4.72;;
43813;SDS011;29669;55.706;37.656;2024-02-28T00:38:09;11.25;;;4.65;;
43813;SDS011;29669;55.706;37.656;2024-02-28T00:40:37;10.73;;;4.28;;
43813;SDS011;29669;55.706;37.656;2024-02-28T00:43:05;7.85;;;4.07;;
43813;SDS011;29669;55.706;37.656;2024-02-28T00:45:33;9.07;;;3.45;;
43813;SDS011;29669;55.706;37.656;2024-02-28T00:48:00;9.68;;;3.33;;
43813;SDS011;29669;55.706;37.656;2024-02-28T00:50:28;10.85;;;3.42;;
43813;SDS011;29669;55.706;37.656;2024-02-28T00:52:56;7.22;;;4.05;;
43813;SDS011;29669;55.706;37.656;2024-02-28T00:55:24;12.90;;;4.85;;
43813;SDS011;29669;55.706;37.656;2024-02-28T00:57:51;11.45;;;4.50;;
43813;SDS011;29669;55.706;37.656;2024-02-28T01:00:19;9.90;;;3.72;;
43813;SDS011;29669;55.706;37.656;2024-02-28T01:02:47;7.63;;;3.88;;
43813;SDS011;29669;55.706;37.656;2024-02-28T01:05:15;7.95;;;3.72;;
43813;SDS011;29669;55.706;37.656;2024-02-28T01:07:42;4.65;;;3.15;;
43813;SDS011;29669;55.706;37.656;2024-02-28T01:10:10;13.82;;;4.03;;
43813;SDS011;29669;55.706;37.656;2024-02-28T01:12:37;7.18;;;3.67;;
43813;SDS011;29669;55.706;37.656;2024-02-28T01:15:05;9.73;;;4.38;;
43813;SDS011;29669;55.706;37.656;2024-02-28T01:17:33;9.52;;;3.40;;
43813;SDS011;29669;55.706;37.656;2024-02-28T01:20:01;9.77;;;4.32;;
43813;SDS011;29669;55.706;37.656;2024-02-28T01:22:29;7.93;;;3.40;;
43813;SDS011;29669;55.706;37.656;2024-02-28T01:24:56;10.20;;;4.60;;
43813;SDS011;29669;55.706;37.656;2024-02-28T01:27:24;5.72;;;3.15;;
43813;SDS011;29669;55.706;37.656;2024-02-28T01:29:52;5.57;;;3.75;;
43813;SDS011;29669;55.706;37.656;2024-02-28T01:32:21;8.82;;;3.72;;
43813;SDS011;29669;55.706;37.656;2024-02-28T01:34:48;10.70;;;3.38;;
43813;SDS011;29669;55.706;37.656;2024-02-28T01:37:16;10.52;;;4.15;;
43813;SDS011;29669;55.706;37.656;2024-02-28T01:39:43;9.20;;;3.60;;
43813;SDS011;29669;55.706;37.656;2024-02-28T01:42:11;8.23;;;3.63;;
43813;SDS011;29669;55.706;37.656;2024-02-28T01:44:45;9.98;;;3.95;;
43813;SDS011;29669;55.706;37.656;2024-02-28T01:47:15;8.82;;;3.75;;
43813;SDS011;29669;55.706;37.656;2024-02-28T01:49:45;8.10;;;3.63;;
43813;SDS011;29669;55.706;37.656;2024-02-28T01:52:14;11.90;;;3.63;;
43813;SDS011;29669;55.706;37.656;2024-02-28T01:54:43;5.03;;;3.22;;
43813;SDS011;29669;55.706;37.656;2024-02-28T01:57:11;8.73;;;3.47;;
43813;SDS011;29669;55.706;37.656;2024-02-28T01:59:39;5.25;;;3.00;;
43813;SDS011;29669;55.706;37.656;2024-02-28T02:02:08;5.60;;;3.55;;
43813;SDS011;29669;55.706;37.656;2024-02-28T02:04:36;14.38;;;3.75;;
43813;SDS011;29669;55.706;37.656;2024-02-28T02:07:04;7.45;;;3.33;;
43813;SDS011;29669;55.706;37.656;2024-02-28T02:09:34;8.57;;;3.47;;
43813;SDS011;29669;55.706;37.656;2024-02-28T02:12:03;6.85;;;3.30;;
43813;SDS011;29669;55.706;37.656;2024-02-28T02:14:30;10.52;;;3.92;;
43813;SDS011;29669;55.706;37.656;2024-02-28T02:16:58;8.45;;;3.60;;
43813;SDS011;29669;55.706;37.656;2024-02-28T02:19:25;6.03;;;3.22;;
43813;SDS011;29669;55.706;37.656;2024-02-28T02:21:54;16.45;;;3.72;;
43813;SDS011;29669;55.706;37.656;2024-02-28T02:24:28;6.22;;;3.17;;
43813;SDS011;29669;55.706;37.656;2024-02-28T02:26:57;9.20;;;4.05;;
43813;SDS011;29669;55.706;37.656;2024-02-28T02:29:26;6.55;;;3.08;;
43813;SDS011;29669;55.706;37.656;2024-02-28T02:31:55;6.45;;;3.03;;
43813;SDS011;29669;55.706;37.656;2024-02-28T02:34:23;7.28;;;3.55;;
43813;SDS011;29669;55.706;37.656;2024-02-28T02:36:51;7.82;;;3.63;;
43813;SDS011;29669;55.706;37.656;2024-02-28T02:39:19;8.95;;;3.75;;
43813;SDS011;29669;55.706;37.656;2024-02-28T02:41:46;10.88;;;3.65;;
43813;SDS011;29669;55.706;37.656;2024-02-28T02:44:15;7.95;;;3.58;;
43813;SDS011;29669;55.706;37.656;2024-02-28T02:46:42;8.90;;;4.05;;
43813;SDS011;29669;55.706;37.656;2024-02-28T02:49:10;6.80;;;3.38;;
43813;SDS011;29669;55.706;37.656;2024-02-28T02:51:38;13.95;;;4.40;;
43813;SDS011;29669;55.706;37.656;2024-02-28T02:54:05;5.30;;;3.00;;
43813;SDS011;29669;55.706;37.656;2024-02-28T02:56:33;8.02;;;3.33;;
43813;SDS011;29669;55.706;37.656;2024-02-28T02:59:00;11.13;;;2.95;;
43813;SDS011;29669;55.706;37.656;2024-02-28T03:01:28;12.75;;;3.50;;
43813;SDS011;29669;55.706;37.656;2024-02-28T03:03:56;12.48;;;3.60;;
43813;SDS011;29669;55.706;37.656;2024-02-28T03:06:23;6.75;;;3.65;;
43813;SDS011;29669;55.706;37.656;2024-02-28T03:08:51;8.10;;;3.80;;
43813;SDS011;29669;55.706;37.656;2024-02-28T03:11:19;6.53;;;3.45;;
43813;SDS011;29669;55.706;37.656;2024-02-28T03:13:47;6.90;;;2.75;;
43813;SDS011;29669;55.706;37.656;2024-02-28T03:16:15;8.43;;;3.72;;
43813;SDS011;29669;55.706;37.656;2024-02-28T03:18:42;8.95;;;3.45;;
43813;SDS011;29669;55.706;37.656;2024-02-28T03:21:10;7.78;;;3.60;;
43813;SDS011;29669;55.706;37.656;2024-02-28T03:23:38;11.88;;;3.63;;
43813;SDS011;29669;55.706;37.656;2024-02-28T03:26:06;7.60;;;4.22;;
43813;SDS011;29669;55.706;37.656;2024-02-28T03:28:33;5.97;;;3.25;;
43813;SDS011;29669;55.706;37.656;2024-02-28T03:31:01;10.88;;;3.95;;
43813;SDS011;29669;55.706;37.656;2024-02-28T03:33:29;7.75;;;3.78;;
43813;SDS011;29669;55.706;37.656;2024-02-28T03:35:59;6.70;;;3.35;;
43813;SDS011;29669;55.706;37.656;2024-02-28T03:38:27;8.13;;;3.42;;
43813;SDS011;29669;55.706;37.656;2024-02-28T03:40:55;6.32;;;3.65;;
43813;SDS011;29669;55.706;37.656;2024-02-28T03:43:22;10.40;;;4.10;;
43813;SDS011;29669;55.706;37.656;2024-02-28T03:45:50;10.13;;;3.70;;
43813;SDS011;29669;55.706;37.656;2024-02-28T03:48:18;10.73;;;3.53;;
43813;SDS011;29669;55.706;37.656;2024-02-28T03:50:46;11.15;;;3.78;;
43813;SDS011;29669;55.706;37.656;2024-02-28T03:53:14;7.95;;;3.95;;
43813;SDS011;29669;55.706;37.656;2024-02-28T03:55:41;9.15;;;4.00;;
43813;SDS011;29669;55.706;37.656;2024-02-28T03:58:11;8.93;;;3.22;;
43813;SDS011;29669;55.706;37.656;2024-02-28T04:00:39;9.98;;;3.65;;
43813;SDS011;29669;55.706;37.656;2024-02-28T04:03:07;10.63;;;4.38;;
43813;SDS011;29669;55.706;37.656;2024-02-28T04:05:35;7.57;;;3.65;;
43813;SDS011;29669;55.706;37.656;2024-02-28T04:08:03;9.25;;;3.17;;
43813;SDS011;29669;55.706;37.656;2024-02-28T04:10:31;7.43;;;3.33;;
43813;SDS011;29669;55.706;37.656;2024-02-28T04:12:59;5.13;;;3.20;;
43813;SDS011;29669;55.706;37.656;2024-02-28T04:15:27;6.25;;;3.97;;
43813;SDS011;29669;55.706;37.656;2024-02-28T04:17:55;7.32;;;3.85;;
43813;SDS011;29669;55.706;37.656;2024-02-28T04:20:23;6.95;;;3.58;;
43813;SDS011;29669;55.706;37.656;2024-02-28T04:22:51;7.90;;;3.50;;
43813;SDS011;29669;55.706;37.656;2024-02-28T04:25:19;9.13;;;3.90;;
43813;SDS011;29669;55.706;37.656;2024-02-28T04:27:46;8.50;;;3.33;;
43813;SDS011;29669;55.706;37.656;2024-02-28T04:30:14;13.32;;;3.97;;
43813;SDS011;29669;55.706;37.656;2024-02-28T04:32:42;5.75;;;3.30;;
43813;SDS011;29669;55.706;37.656;2024-02-28T04:35:10;10.18;;;3.58;;
43813;SDS011;29669;55.706;37.656;2024-02-28T04:37:37;7.05;;;3.17;;
43813;SDS011;29669;55.706;37.656;2024-02-28T04:40:05;10.48;;;4.38;;
43813;SDS011;29669;55.706;37.656;2024-02-28T04:42:34;7.72;;;3.45;;
43813;SDS011;29669;55.706;37.656;2024-02-28T04:45:01;8.40;;;3.83;;
43813;SDS011;29669;55.706;37.656;2024-02-28T04:47:30;7.57;;;3.70;;
43813;SDS011;29669;55.706;37.656;2024-02-28T04:50:03;11.57;;;4.00;;
43813;SDS011;29669;55.706;37.656;2024-02-28T04:52:34;14.85;;;4.03;;
43813;SDS011;29669;55.706;37.656;2024-02-28T04:55:02;9.30;;;3.72;;
43813;SDS011;29669;55.706;37.656;2024-02-28T04:57:30;5.18;;;3.20;;
43813;SDS011;29669;55.706;37.656;2024-02-28T04:59:58;9.65;;;3.97;;
43813;SDS011;29669;55.706;37.656;2024-02-28T05:02:26;7.75;;;3.67;;
43813;SDS011;29669;55.706;37.656;2024-02-28T05:04:53;6.18;;;3.00;;
43813;SDS011;29669;55.706;37.656;2024-02-28T05:07:21;7.40;;;3.40;;
43813;SDS011;29669;55.706;37.656;2024-02-28T05:09:49;10.43;;;3.67;;
43813;SDS011;29669;55.706;37.656;2024-02-28T05:12:17;10.82;;;3.53;;
43813;SDS011;29669;55.706;37.656;2024-02-28T05:14:45;9.52;;;3.63;;
43813;SDS011;29669;55.706;37.656;2024-02-28T05:17:13;12.50;;;4.47;;
43813;SDS011;29669;55.706;37.656;2024-02-28T05:19:41;10.45;;;3.53;;
43813;SDS011;29669;55.706;37.656;2024-02-28T05:22:09;7.85;;;3.70;;
43813;SDS011;29669;55.706;37.656;2024-02-28T05:24:38;6.60;;;3.45;;
43813;SDS011;29669;55.706;37.656;2024-02-28T05:27:06;7.32;;;3.58;;
43813;SDS011;29669;55.706;37.656;2024-02-28T05:29:34;11.18;;;4.28;;
43813;SDS011;29669;55.706;37.656;2024-02-28T05:32:01;7.88;;;3.72;;
43813;SDS011;29669;55.706;37.656;2024-02-28T05:34:29;10.43;;;3.60;;
43813;SDS011;29669;55.706;37.656;2024-02-28T05:36:57;10.00;;;3.80;;
43813;SDS011;29669;55.706;37.656;2024-02-28T05:39:25;6.05;;;3.40;;
43813;SDS011;29669;55.706;37.656;2024-02-28T05:41:53;9.07;;;3.33;;
43813;SDS011;29669;55.706;37.656;2024-02-28T05:44:21;9.98;;;3.78;;
43813;SDS011;29669;55.706;37.656;2024-02-28T05:46:50;6.65;;;3.95;;
43813;SDS011;29669;55.706;37.656;2024-02-28T05:49:17;10.65;;;3.40;;
43813;SDS011;29669;55.706;37.656;2024-02-28T05:51:45;9.57;;;3.95;;
43813;SDS011;29669;55.706;37.656;2024-02-28T05:54:14;7.80;;;3.17;;
43813;SDS011;29669;55.706;37.656;2024-02-28T05:56:42;10.98;;;3.50;;
43813;SDS011;29669;55.706;37.656;2024-02-28T05:59:09;17.00;;;4.35;;
43813;SDS011;29669;55.706;37.656;2024-02-28T06:01:37;8.45;;;3.33;;
43813;SDS011;29669;55.706;37.656;2024-02-28T06:04:07;6.90;;;3.20;;
43813;SDS011;29669;55.706;37.656;2024-02-28T06:06:35;10.52;;;4.50;;
43813;SDS011;29669;55.706;37.656;2024-02-28T06:09:03;8.00;;;3.30;;
43813;SDS011;29669;55.706;37.656;2024-02-28T06:11:30;10.23;;;3.72;;
43813;SDS011;29669;55.706;37.656;2024-02-28T06:13:58;8.10;;;3.88;;
43813;SDS011;29669;55.706;37.656;2024-02-28T06:16:26;11.90;;;4.45;;
43813;SDS011;29669;55.706;37.656;2024-02-28T06:18:54;6.80;;;3.25;;
43813;SDS011;29669;55.706;37.656;2024-02-28T06:21:22;7.97;;;4.25;;
43813;SDS011;29669;55.706;37.656;2024-02-28T06:23:50;6.85;;;3.03;;
43813;SDS011;29669;55.706;37.656;2024-02-28T06:26:18;11.10;;;3.97;;
43813;SDS011;29669;55.706;37.656;2024-02-28T06:28:46;8.15;;;3.53;;
43813;SDS011;29669;55.706;37.656;2024-02-28T06:31:16;6.82;;;2.67;;
43813;SDS011;29669;55.706;37.656;2024-02-28T06:33:45;7.82;;;3.95;;
43813;SDS011;29669;55.706;37.656;2024-02-28T06:36:13;8.15;;;3.17;;
43813;SDS011;29669;55.706;37.656;2024-02-28T06:38:41;9.88;;;4.60;;
43813;SDS011;29669;55.706;37.656;2024-02-28T06:41:09;6.15;;;3.65;;
43813;SDS011;29669;55.706;37.656;2024-02-28T06:43:37;8.18;;;3.63;;
43813;SDS011;29669;55.706;37.656;2024-02-28T06:46:04;9.35;;;3.97;;
43813;SDS011;29669;55.706;37.656;2024-02-28T06:48:32;11.05;;;4.13;;
43813;SDS011;29669;55.706;37.656;2024-02-28T06:51:00;10.50;;;4.03;;
43813;SDS011;29669;55.706;37.656;2024-02-28T06:53:28;7.60;;;4.07;;
43813;SDS011;29669;55.706;37.656;2024-02-28T06:55:56;12.95;;;4.07;;
43813;SDS011;29669;55.706;37.656;2024-02-28T06:58:23;13.30;;;3.72;;
43813;SDS011;29669;55.706;37.656;2024-02-28T07:00:52;7.93;;;3.45;;
43813;SDS011;29669;55.706;37.656;2024-02-28T07:03:22;7.30;;;3.88;;
43813;SDS011;29669;55.706;37.656;2024-02-28T07:05:49;10.30;;;3.97;;
43813;SDS011;29669;55.706;37.656;2024-02-28T07:08:17;9.75;;;4.15;;
43813;SDS011;29669;55.706;37.656;2024-02-28T07:10:44;9.90;;;3.50;;
43813;SDS011;29669;55.706;37.656;2024-02-28T07:13:16;11.00;;;4.28;;
43813;SDS011;29669;55.706;37.656;2024-02-28T07:15:44;9.77;;;4.40;;
43813;SDS011;29669;55.706;37.656;2024-02-28T07:18:12;10.82;;;3.17;;
43813;SDS011;29669;55.706;37.656;2024-02-28T07:20:40;11.63;;;3.67;;
43813;SDS011;29669;55.706;37.656;2024-02-28T07:23:08;8.90;;;3.95;;
43813;SDS011;29669;55.706;37.656;2024-02-28T07:25:36;8.93;;;3.83;;
43813;SDS011;29669;55.706;37.656;2024-02-28T07:28:03;6.82;;;4.07;;
43813;SDS011;29669;55.706;37.656;2024-02-28T07:30:31;9.73;;;4.43;;
43813;SDS011;29669;55.706;37.656;2024-02-28T07:32:59;9.45;;;4.07;;
43813;SDS011;29669;55.706;37.656;2024-02-28T07:35:27;10.57;;;4.60;;
43813;SDS011;29669;55.706;37.656;2024-02-28T07:37:54;15.13;;;4.40;;
43813;SDS011;29669;55.706;37.656;2024-02-28T07:40:22;6.72;;;3.35;;
43813;SDS011;29669;55.706;37.656;2024-02-28T07:42:50;8.10;;;4.32;;
43813;SDS011;29669;55.706;37.656;2024-02-28T07:45:17;5.57;;;3.80;;
43813;SDS011;29669;55.706;37.656;2024-02-28T07:47:45;8.10;;;3.72;;
43813;SDS011;29669;55.706;37.656;2024-02-28T07:50:13;9.10;;;4.30;;
43813;SDS011;29669;55.706;37.656;2024-02-28T07:52:41;7.15;;;4.25;;
43813;SDS011;29669;55.706;37.656;2024-02-28T07:55:09;8.20;;;3.85;;
43813;SDS011;29669;55.706;37.656;2024-02-28T07:57:36;7.88;;;3.67;;
43813;SDS011;29669;55.706;37.656;2024-02-28T08:00:04;9.80;;;4.35;;
43813;SDS011;29669;55.706;37.656;2024-02-28T08:02:38;9.18;;;3.72;;
43813;SDS011;29669;55.706;37.656;2024-02-28T08:05:06;6.28;;;4.13;;
43813;SDS011;29669;55.706;37.656;2024-02-28T08:07:35;9.10;;;4.13;;
43813;SDS011;29669;55.706;37.656;2024-02-28T08:10:03;8.05;;;4.22;;
43813;SDS011;29669;55.706;37.656;2024-02-28T08:12:33;11.27;;;4.10;;
43813;SDS011;29669;55.706;37.656;2024-02-28T08:15:01;17.38;;;4.95;;
43813;SDS011;29669;55.706;37.656;2024-02-28T08:17:31;12.95;;;4.47;;
43813;SDS011;29669;55.706;37.656;2024-02-28T08:19:59;10.98;;;4.63;;
43813;SDS011;29669;55.706;37.656;2024-02-28T08:22:27;11.88;;;5.03;;
43813;SDS011;29669;55.706;37.656;2024-02-28T08:24:54;13.90;;;3.90;;
43813;SDS011;29669;55.706;37.656;2024-02-28T08:27:22;14.35;;;4.95;;
43813;SDS011;29669;55.706;37.656;2024-02-28T08:29:50;7.38;;;3.90;;
43813;SDS011;29669;55.706;37.656;2024-02-28T08:32:18;10.48;;;4.35;;
43813;SDS011;29669;55.706;37.656;2024-02-28T08:34:46;7.93;;;4.47;;
43813;SDS011;29669;55.706;37.656;2024-02-28T08:37:14;11.02;;;5.32;;
43813;SDS011;29669;55.706;37.656;2024-02-28T08:39:43;11.32;;;5.22;;
43813;SDS011;29669;55.706;37.656;2024-02-28T08:42:11;10.20;;;4.65;;
43813;SDS011;29669;55.706;37.656;2024-02-28T08:44:39;10.95;;;5.53;;
43813;SDS011;29669;55.706;37.656;2024-02-28T08:47:07;11.93;;;4.70;;
43813;SDS011;29669;55.706;37.656;2024-02-28T08:49:38;10.45;;;4.18;;
43813;SDS011;29669;55.706;37.656;2024-02-28T08:52:06;11.20;;;4.85;;
43813;SDS011;29669;55.706;37.656;2024-02-28T08:54:34;12.45;;;5.40;;
43813;SDS011;29669;55.706;37.656;2024-02-28T08:57:02;8.73;;;4.72;;
43813;SDS011;29669;55.706;37.656;2024-02-28T08:59:31;5.30;;;4.10;;
43813;SDS011;29669;55.706;37.656;2024-02-28T09:01:58;11.10;;;5.03;;
43813;SDS011;29669;55.706;37.656;2024-02-28T09:04:26;7.68;;;4.07;;
43813;SDS011;29669;55.706;37.656;2024-02-28T09:06:54;9.07;;;4.20;;
43813;SDS011;29669;55.706;37.656;2024-02-28T09:09:22;6.72;;;4.88;;
43813;SDS011;29669;55.706;37.656;2024-02-28T09:11:49;9.57;;;4.78;;
43813;SDS011;29669;55.706;37.656;2024-02-28T09:14:17;9.43;;;4.72;;
43813;SDS011;29669;55.706;37.656;2024-02-28T09:16:45;9.23;;;4.97;;
43813;SDS011;29669;55.706;37.656;2024-02-28T09:19:13;11.57;;;5.45;;
43813;SDS011;29669;55.706;37.656;2024-02-28T09:21:41;13.35;;;4.68;;
43813;SDS011;29669;55.706;37.656;2024-02-28T09:24:09;11.55;;;5.25;;
43813;SDS011;29669;55.706;37.656;2024-02-28T09:26:39;9.00;;;4.28;;
43813;SDS011;29669;55.706;37.656;2024-02-28T09:29:07;10.18;;;4.95;;
43813;SDS011;29669;55.706;37.656;2024-02-28T09:31:35;8.90;;;4.75;;
43813;SDS011;29669;55.706;37.656;2024-02-28T09:34:03;11.65;;;4.95;;
43813;SDS011;29669;55.706;37.656;2024-02-28T09:36:41;13.60;;;5.65;;
43813;SDS011;29669;55.706;37.656;2024-02-28T09:39:17;10.75;;;4.97;;
43813;SDS011;29669;55.706;37.656;2024-02-28T09:41:47;11.95;;;4.65;;
43813;SDS011;29669;55.706;37.656;2024-02-28T09:44:18;12.45;;;5.43;;
43813;SDS011;29669;55.706;37.656;2024-02-28T09:46:51;9.55;;;5.43;;
43813;SDS011;29669;55.706;37.656;2024-02-28T09:49:19;12.35;;;5.00;;
43813;SDS011;29669;55.706;37.656;2024-02-28T09:51:49;15.45;;;5.53;;
43813;SDS011;29669;55.706;37.656;2024-02-28T09:54:18;11.90;;;5.45;;
43813;SDS011;29669;55.706;37.656;2024-02-28T09:56:47;10.93;;;5.72;;
43813;SDS011;29669;55.706;37.656;2024-02-28T09:59:18;11.55;;;5.88;;
43813;SDS011;29669;55.706;37.656;2024-02-28T10:01:55;9.45;;;5.82;;
43813;SDS011;29669;55.706;37.656;2024-02-28T10:04:28;16.77;;;6.50;;
43813;SDS011;29669;55.706;37.656;2024-02-28T10:06:56;12.30;;;5.97;;
43813;SDS011;29669;55.706;37.656;2024-02-28T10:09:24;9.57;;;4.82;;
43813;SDS011;29669;55.706;37.656;2024-02-28T10:11:54;19.88;;;5.68;;
43813;SDS011;29669;55.706;37.656;2024-02-28T10:14:22;12.65;;;5.40;;
43813;SDS011;29669;55.706;37.656;2024-02-28T10:16:49;10.45;;;5.40;;
43813;SDS011;29669;55.706;37.656;2024-02-28T10:19:18;10.75;;;5.40;;
43813;SDS011;29669;55.706;37.656;2024-02-28T10:21:46;9.80;;;5.55;;
43813;SDS011;29669;55.706;37.656;2024-02-28T10:24:14;9.57;;;5.13;;
43813;SDS011;29669;55.706;37.656;2024-02-28T10:26:45;12.93;;;5.00;;
43813;SDS011;29669;55.706;37.656;2024-02-28T10:29:23;9.90;;;5.30;;
43813;SDS011;29669;55.706;37.656;2024-02-28T10:31:52;15.68;;;6.03;;
43813;SDS011;29669;55.706;37.656;2024-02-28T10:34:20;10.18;;;5.20;;
43813;SDS011;29669;55.706;37.656;2024-02-28T10:36:47;9.65;;;5.43;;
43813;SDS011;29669;55.706;37.656;2024-02-28T10:39:16;11.38;;;5.22;;
43813;SDS011;29669;55.706;37.656;2024-02-28T10:41:45;12.93;;;5.93;;
43813;SDS011;29669;55.706;37.656;2024-02-28T10:44:14;13.80;;;5.05;;
43813;SDS011;29669;55.706;37.656;2024-02-28T10:46:44;15.52;;;6.13;;
43813;SDS011;29669;55.706;37.656;2024-02-28T10:49:16;13.73;;;5.78;;
43813;SDS011;29669;55.706;37.656;2024-02-28T10:51:44;17.45;;;6.68;;
43813;SDS011;29669;55.706;37.656;2024-02-28T10:54:16;11.70;;;5.57;;
43813;SDS011;29669;55.706;37.656;2024-02-28T10:56:47;11.50;;;6.03;;
43813;SDS011;29669;55.706;37.656;2024-02-28T10:59:16;11.23;;;6.32;;
43813;SDS011;29669;55.706;37.656;2024-02-28T11:01:44;14.18;;;6.93;;
43813;SDS011;29669;55.706;37.656;2024-02-28T11:04:13;14.50;;;6.07;;
43813;SDS011;29669;55.706;37.656;2024-02-28T11:06:49;11.20;;;6.30;;
43813;SDS011;29669;55.706;37.656;2024-02-28T11:09:22;13.15;;;5.93;;
43813;SDS011;29669;55.706;37.656;2024-02-28T11:11:50;15.68;;;6.93;;
43813;SDS011;29669;55.706;37.656;2024-02-28T11:14:19;17.10;;;6.20;;
43813;SDS011;29669;55.706;37.656;2024-02-28T11:17:02;15.27;;;8.02;;
43813;SDS011;29669;55.706;37.656;2024-02-28T11:19:32;13.07;;;6.25;;
43813;SDS011;29669;55.706;37.656;2024-02-28T11:22:02;9.93;;;5.93;;
43813;SDS011;29669;55.706;37.656;2024-02-28T11:24:33;10.43;;;5.50;;
43813;SDS011;29669;55.706;37.656;2024-02-28T11:27:03;13.82;;;6.35;;
43813;SDS011;29669;55.706;37.656;2024-02-28T11:29:33;9.65;;;6.60;;
43813;SDS011;29669;55.706;37.656;2024-02-28T11:32:01;10.40;;;6.03;;
43813;SDS011;29669;55.706;37.656;2024-02-28T11:34:29;14.27;;;5.68;;
43813;SDS011;29669;55.706;37.656;2024-02-28T11:36:57;12.07;;;6.55;;
43813;SDS011;29669;55.706;37.656;2024-02-28T11:39:26;11.27;;;5.82;;
43813;SDS011;29669;55.706;37.656;2024-02-28T11:41:54;13.88;;;5.90;;
43813;SDS011;29669;55.706;37.656;2024-02-28T11:44:23;12.40;;;5.80;;
43813;SDS011;29669;55.706;37.656;2024-02-28T11:46:50;9.13;;;5.43;;
43813;SDS011;29669;55.706;37.656;2024-02-28T11:49:18;12.73;;;6.10;;
43813;SDS011;29669;55.706;37.656;2024-02-28T11:51:46;13.60;;;6.00;;
43813;SDS011;29669;55.706;37.656;2024-02-28T11:54:14;20.98;;;6.72;;
43813;SDS011;29669;55.706;37.656;2024-02-28T11:56:41;13.55;;;5.72;;
43813;SDS011;29669;55.706;37.656;2024-02-28T11:59:10;8.27;;;5.88;;
43813;SDS011;29669;55.706;37.656;2024-02-28T12:01:40;13.02;;;5.47;;
43813;SDS011;29669;55.706;37.656;2024-02-28T12:04:09;9.57;;;5.18;;
43813;SDS011;29669;55.706;37.656;2024-02-28T12:06:37;9.40;;;6.32;;
43813;SDS011;29669;55.706;37.656;2024-02-28T12:09:06;14.75;;;7.45;;
43813;SDS011;29669;55.706;37.656;2024-02-28T12:11:42;14.35;;;6.28;;
43813;SDS011;29669;55.706;37.656;2024-02-28T12:14:10;16.30;;;7.13;;
43813;SDS011;29669;55.706;37.656;2024-02-28T12:16:39;13.63;;;6.55;;
43813;SDS011;29669;55.706;37.656;2024-02-28T12:19:11;11.73;;;6.88;;
43813;SDS011;29669;55.706;37.656;2024-02-28T12:21:42;20.83;;;6.88;;
43813;SDS011;29669;55.706;37.656;2024-02-28T12:24:10;13.27;;;6.38;;
43813;SDS011;29669;55.706;37.656;2024-02-28T12:26:38;10.32;;;5.82;;
43813;SDS011;29669;55.706;37.656;2024-02-28T12:29:06;15.18;;;6.13;;
43813;SDS011;29669;55.706;37.656;2024-02-28T12:31:35;14.07;;;7.13;;
43813;SDS011;29669;55.706;37.656;2024-02-28T12:34:04;12.88;;;6.15;;
43813;SDS011;29669;55.706;37.656;2024-02-28T12:36:32;13.50;;;6.72;;
43813;SDS011;29669;55.706;37.656;2024-02-28T12:39:00;15.55;;;7.22;;
43813;SDS011;29669;55.706;37.656;2024-02-28T12:41:28;14.13;;;7.10;;
43813;SDS011;29669;55.706;37.656;2024-02-28T12:43:56;13.65;;;6.78;;
43813;SDS011;29669;55.706;37.656;2024-02-28T12:46:23;14.02;;;6.65;;
43813;SDS011;29669;55.706;37.656;2024-02-28T12:48:51;11.85;;;6.78;;
43813;SDS011;29669;55.706;37.656;2024-02-28T12:54:05;11.43;;;6.78;;
43813;SDS011;29669;55.706;37.656;2024-02-28T12:56:35;15.05;;;6.72;;
43813;SDS011;29669;55.706;37.656;2024-02-28T12:59:04;14.20;;;6.32;;
43813;SDS011;29669;55.706;37.656;2024-02-28T13:01:36;18.55;;;7.40;;
43813;SDS011;29669;55.706;37.656;2024-02-28T13:04:04;12.35;;;6.57;;
43813;SDS011;29669;55.706;37.656;2024-02-28T13:06:31;16.20;;;7.10;;
43813;SDS011;29669;55.706;37.656;2024-02-28T13:08:59;19.92;;;7.00;;
43813;SDS011;29669;55.706;37.656;2024-02-28T13:11:27;12.27;;;6.45;;
43813;SDS011;29669;55.706;37.656;2024-02-28T13:13:55;14.43;;;6.53;;
43813;SDS011;29669;55.706;37.656;2024-02-28T13:16:23;16.30;;;8.10;;
43813;SDS011;29669;55.706;37.656;2024-02-28T13:18:50;12.00;;;6.15;;
43813;SDS011;29669;55.706;37.656;2024-02-28T13:21:19;11.55;;;5.88;;
43813;SDS011;29669;55.706;37.656;2024-02-28T13:23:47;15.50;;;6.30;;
43813;SDS011;29669;55.706;37.656;2024-02-28T13:26:14;13.07;;;6.60;;
43813;SDS011;29669;55.706;37.656;2024-02-28T13:28:46;10.82;;;5.72;;
43813;SDS011;29669;55.706;37.656;2024-02-28T13:31:17;11.00;;;5.65;;
43813;SDS011;29669;55.706;37.656;2024-02-28T13:33:44;20.45;;;6.72;;
43813;SDS011;29669;55.706;37.656;2024-02-28T13:39:10;12.45;;;5.80;;
43813;SDS011;29669;55.706;37.656;2024-02-28T13:41:40;9.82;;;5.63;;
43813;SDS011;29669;55.706;37.656;2024-02-28T13:44:08;13.85;;;6.30;;
43813;SDS011;29669;55.706;37.656;2024-02-28T13:46:38;11.70;;;5.78;;
43813;SDS011;29669;55.706;37.656;2024-02-28T13:49:08;13.43;;;6.28;;
43813;SDS011;29669;55.706;37.656;2024-02-28T13:51:36;17.42;;;5.70;;
43813;SDS011;29669;55.706;37.656;2024-02-28T13:54:29;9.27;;;6.05;;
43813;SDS011;29669;55.706;37.656;2024-02-28T13:56:57;11.10;;;5.90;;
43813;SDS011;29669;55.706;37.656;2024-02-28T13:59:25;10.40;;;5.95;;
43813;SDS011;29669;55.706;37.656;2024-02-28T14:01:53;10.68;;;5.03;;
43813;SDS011;29669;55.706;37.656;2024-02-28T14:04:21;11.98;;;6.22;;
43813;SDS011;29669;55.706;37.656;2024-02-28T14:06:49;12.77;;;6.80;;
43813;SDS011;29669;55.706;37.656;2024-02-28T14:09:17;13.57;;;6.55;;
43813;SDS011;29669;55.706;37.656;2024-02-28T14:11:45;15.88;;;6.25;;
43813;SDS011;29669;55.706;37.656;2024-02-28T14:14:12;13.27;;;6.15;;
43813;SDS011;29669;55.706;37.656;2024-02-28T14:16:40;14.05;;;6.50;;
43813;SDS011;29669;55.706;37.656;2024-02-28T14:19:07;18.58;;;6.38;;
43813;SDS011;29669;55.706;37.656;2024-02-28T14:21:36;21.17;;;7.15;;
43813;SDS011;29669;55.706;37.656;2024-02-28T14:24:03;15.07;;;6.70;;
43813;SDS011;29669;55.706;37.656;2024-02-28T14:26:31;17.35;;;7.45;;
43813;SDS011;29669;55.706;37.656;2024-02-28T14:28:59;12.07;;;6.28;;
43813;SDS011;29669;55.706;37.656;2024-02-28T14:31:27;17.92;;;7.15;;
43813;SDS011;29669;55.706;37.656;2024-02-28T14:33:54;13.85;;;6.20;;
43813;SDS011;29669;55.706;37.656;2024-02-28T14:36:25;14.80;;;6.50;;
43813;SDS011;29669;55.706;37.656;2024-02-28T14:38:52;11.27;;;6.65;;
43813;SDS011;29669;55.706;37.656;2024-02-28T14:41:20;12.38;;;6.63;;